sensor_id;sensor_type;location;lat;lon;timestamp;temperature;humidity
30336;DHT22;17142;47.990;7.846;2023-06-22T05:17:28;26.20;99.90
30336;DHT22;17142;47.990;7.846;2023-06-22T05:19:53;26.30;99.90
30336;DHT22;17142;47.990;7.846;2023-06-22T05:22:20;26.40;99.90
30336;DHT22;17142;47.990;7.846;2023-06-22T05:24:48;26.60;99.90
30336;DHT22;17142;47.990;7.846;2023-06-22T05:27:14;26.70;99.90
30336;DHT22;17142;47.990;7.846;2023-06-22T05:29:40;26.80;99.90
30336;DHT22;17142;47.990;7.846;2023-06-22T05:32:06;26.60;99.90
30336;DHT22;17142;47.990;7.846;2023-06-22T05:34:32;26.70;99.90
30336;DHT22;17142;47.990;7.846;2023-06-22T05:36:58;27.00;99.90
30336;DHT22;17142;47.990;7.846;2023-06-22T05:39:26;27.40;99.60
30336;DHT22;17142;47.990;7.846;2023-06-22T05:41:52;27.60;99.10
30336;DHT22;17142;47.990;7.846;2023-06-22T05:44:18;27.90;98.20
30336;DHT22;17142;47.990;7.846;2023-06-22T05:46:45;28.30;97.10
30336;DHT22;17142;47.990;7.846;2023-06-22T05:49:14;28.40;96.40
30336;DHT22;17142;47.990;7.846;2023-06-22T05:51:43;28.70;95.70
30336;DHT22;17142;47.990;7.846;2023-06-22T05:54:09;29.10;94.80
30336;DHT22;17142;47.990;7.846;2023-06-22T05:56:38;29.30;93.60
30336;DHT22;17142;47.990;7.846;2023-06-22T05:59:04;29.60;92.50
30336;DHT22;17142;47.990;7.846;2023-06-22T06:01:30;29.60;91.60
30336;DHT22;17142;47.990;7.846;2023-06-22T06:03:59;29.30;91.60
30336;DHT22;17142;47.990;7.846;2023-06-22T06:06:25;29.20;91.40
30336;DHT22;17142;47.990;7.846;2023-06-22T06:08:56;29.10;91.50
30336;DHT22;17142;47.990;7.846;2023-06-22T06:11:22;28.90;91.80
30336;DHT22;17142;47.990;7.846;2023-06-22T06:13:50;28.90;91.70
30336;DHT22;17142;47.990;7.846;2023-06-22T06:16:16;28.80;91.70
30336;DHT22;17142;47.990;7.846;2023-06-22T06:18:41;28.40;92.10
30336;DHT22;17142;47.990;7.846;2023-06-22T06:21:07;28.20;92.80
30336;DHT22;17142;47.990;7.846;2023-06-22T06:23:35;27.80;93.20
30336;DHT22;17142;47.990;7.846;2023-06-22T06:26:01;27.40;94.00
30336;DHT22;17142;47.990;7.846;2023-06-22T06:28:26;27.00;95.60
30336;DHT22;17142;47.990;7.846;2023-06-22T06:30:55;26.80;96.60
30336;DHT22;17142;47.990;7.846;2023-06-22T06:33:20;27.30;96.40
30336;DHT22;17142;47.990;7.846;2023-06-22T06:35:46;28.10;95.40
30336;DHT22;17142;47.990;7.846;2023-06-22T06:38:12;28.90;93.60
30336;DHT22;17142;47.990;7.846;2023-06-22T06:40:39;29.50;92.20
30336;DHT22;17142;47.990;7.846;2023-06-22T06:43:08;29.60;91.10
30336;DHT22;17142;47.990;7.846;2023-06-22T06:45:36;29.20;91.40
30336;DHT22;17142;47.990;7.846;2023-06-22T06:48:04;28.80;92.40
30336;DHT22;17142;47.990;7.846;2023-06-22T06:50:29;28.70;92.90
30336;DHT22;17142;47.990;7.846;2023-06-22T06:52:55;28.30;93.10
30336;DHT22;17142;47.990;7.846;2023-06-22T06:55:24;27.80;93.90
30336;DHT22;17142;47.990;7.846;2023-06-22T06:57:52;27.20;95.00
30336;DHT22;17142;47.990;7.846;2023-06-22T07:00:18;27.00;96.30
30336;DHT22;17142;47.990;7.846;2023-06-22T07:02:44;27.00;96.20
30336;DHT22;17142;47.990;7.846;2023-06-22T07:05:11;26.60;96.80
30336;DHT22;17142;47.990;7.846;2023-06-22T07:07:37;26.20;97.80
30336;DHT22;17142;47.990;7.846;2023-06-22T07:10:03;25.70;98.60
30336;DHT22;17142;47.990;7.846;2023-06-22T07:12:29;25.50;99.40
30336;DHT22;17142;47.990;7.846;2023-06-22T07:15:03;25.30;99.90
30336;DHT22;17142;47.990;7.846;2023-06-22T07:17:33;25.90;99.90
30336;DHT22;17142;47.990;7.846;2023-06-22T07:19:58;27.10;98.80
30336;DHT22;17142;47.990;7.846;2023-06-22T07:22:26;27.70;96.40
30336;DHT22;17142;47.990;7.846;2023-06-22T07:24:54;27.80;95.90
30336;DHT22;17142;47.990;7.846;2023-06-22T07:27:20;27.70;95.70
30336;DHT22;17142;47.990;7.846;2023-06-22T07:29:46;27.50;96.20
30336;DHT22;17142;47.990;7.846;2023-06-22T07:32:12;27.40;95.90
30336;DHT22;17142;47.990;7.846;2023-06-22T07:34:40;27.00;96.60
30336;DHT22;17142;47.990;7.846;2023-06-22T07:37:06;26.50;98.00
30336;DHT22;17142;47.990;7.846;2023-06-22T07:39:32;26.20;99.10
30336;DHT22;17142;47.990;7.846;2023-06-22T07:41:58;26.00;99.60
30336;DHT22;17142;47.990;7.846;2023-06-22T07:44:23;25.80;99.90
30336;DHT22;17142;47.990;7.846;2023-06-22T07:46:51;25.10;99.90
30336;DHT22;17142;47.990;7.846;2023-06-22T07:49:17;24.30;99.90
30336;DHT22;17142;47.990;7.846;2023-06-22T07:51:43;23.90;99.90
30336;DHT22;17142;47.990;7.846;2023-06-22T07:54:11;23.80;99.90
30336;DHT22;17142;47.990;7.846;2023-06-22T07:56:37;24.20;99.90
30336;DHT22;17142;47.990;7.846;2023-06-22T07:59:03;25.00;99.90
30336;DHT22;17142;47.990;7.846;2023-06-22T08:01:29;26.10;99.90
30336;DHT22;17142;47.990;7.846;2023-06-22T08:03:55;26.80;99.90
30336;DHT22;17142;47.990;7.846;2023-06-22T08:06:23;26.80;99.90
30336;DHT22;17142;47.990;7.846;2023-06-22T08:08:48;26.90;99.90
30336;DHT22;17142;47.990;7.846;2023-06-22T08:11:14;27.20;99.90
30336;DHT22;17142;47.990;7.846;2023-06-22T08:13:40;27.40;99.90
30336;DHT22;17142;47.990;7.846;2023-06-22T08:16:05;27.60;99.30
30336;DHT22;17142;47.990;7.846;2023-06-22T08:18:32;27.70;98.00
30336;DHT22;17142;47.990;7.846;2023-06-22T08:21:01;27.70;97.70
30336;DHT22;17142;47.990;7.846;2023-06-22T08:23:26;27.70;96.60
30336;DHT22;17142;47.990;7.846;2023-06-22T08:25:52;27.70;97.20
30336;DHT22;17142;47.990;7.846;2023-06-22T08:28:18;28.00;96.90
30336;DHT22;17142;47.990;7.846;2023-06-22T08:30:43;28.50;95.00
30336;DHT22;17142;47.990;7.846;2023-06-22T08:33:09;28.70;94.90
30336;DHT22;17142;47.990;7.846;2023-06-22T08:35:37;29.60;93.80
30336;DHT22;17142;47.990;7.846;2023-06-22T08:38:05;30.70;91.10
30336;DHT22;17142;47.990;7.846;2023-06-22T08:40:31;31.40;88.60
30336;DHT22;17142;47.990;7.846;2023-06-22T08:42:56;31.70;85.00
30336;DHT22;17142;47.990;7.846;2023-06-22T08:45:22;32.00;79.90
30336;DHT22;17142;47.990;7.846;2023-06-22T08:47:47;32.00;79.50
30336;DHT22;17142;47.990;7.846;2023-06-22T08:50:13;32.10;78.10
30336;DHT22;17142;47.990;7.846;2023-06-22T08:52:40;32.00;77.90
30336;DHT22;17142;47.990;7.846;2023-06-22T08:55:09;32.00;78.10
30336;DHT22;17142;47.990;7.846;2023-06-22T08:57:35;32.20;76.00
30336;DHT22;17142;47.990;7.846;2023-06-22T09:00:10;32.30;74.30
30336;DHT22;17142;47.990;7.846;2023-06-22T09:02:46;32.20;73.50
30336;DHT22;17142;47.990;7.846;2023-06-22T09:05:12;32.10;71.60
30336;DHT22;17142;47.990;7.846;2023-06-22T09:07:41;31.70;72.50
30336;DHT22;17142;47.990;7.846;2023-06-22T09:10:07;31.20;73.70
30336;DHT22;17142;47.990;7.846;2023-06-22T09:12:35;31.20;74.70
30336;DHT22;17142;47.990;7.846;2023-06-22T09:15:03;31.30;73.90
30336;DHT22;17142;47.990;7.846;2023-06-22T09:17:31;31.40;73.60
30336;DHT22;17142;47.990;7.846;2023-06-22T09:19:58;31.50;73.30
30336;DHT22;17142;47.990;7.846;2023-06-22T09:22:23;31.80;71.50
30336;DHT22;17142;47.990;7.846;2023-06-22T09:24:55;32.20;69.50
30336;DHT22;17142;47.990;7.846;2023-06-22T09:27:21;32.40;67.20
30336;DHT22;17142;47.990;7.846;2023-06-22T09:29:48;32.70;67.30
30336;DHT22;17142;47.990;7.846;2023-06-22T09:32:13;32.80;65.70
30336;DHT22;17142;47.990;7.846;2023-06-22T09:34:39;32.80;66.50
30336;DHT22;17142;47.990;7.846;2023-06-22T09:37:05;32.60;66.90
30336;DHT22;17142;47.990;7.846;2023-06-22T09:39:30;32.50;68.80
30336;DHT22;17142;47.990;7.846;2023-06-22T09:41:59;32.40;69.70
30336;DHT22;17142;47.990;7.846;2023-06-22T09:44:25;32.40;70.00
30336;DHT22;17142;47.990;7.846;2023-06-22T09:46:51;32.30;70.90
30336;DHT22;17142;47.990;7.846;2023-06-22T09:49:16;32.30;70.00
30336;DHT22;17142;47.990;7.846;2023-06-22T09:51:42;32.10;70.20
30336;DHT22;17142;47.990;7.846;2023-06-22T09:54:07;31.80;71.60
30336;DHT22;17142;47.990;7.846;2023-06-22T09:56:33;31.70;72.50
30336;DHT22;17142;47.990;7.846;2023-06-22T09:58:59;32.20;71.20
30336;DHT22;17142;47.990;7.846;2023-06-22T10:01:24;32.50;69.50
30336;DHT22;17142;47.990;7.846;2023-06-22T10:03:55;32.50;69.70
30336;DHT22;17142;47.990;7.846;2023-06-22T10:06:22;32.50;69.40
30336;DHT22;17142;47.990;7.846;2023-06-22T10:08:47;32.40;69.70
30336;DHT22;17142;47.990;7.846;2023-06-22T10:11:16;32.30;69.90
30336;DHT22;17142;47.990;7.846;2023-06-22T10:13:41;32.20;71.50
30336;DHT22;17142;47.990;7.846;2023-06-22T10:16:09;32.20;69.50
30336;DHT22;17142;47.990;7.846;2023-06-22T10:18:35;32.20;69.60
30336;DHT22;17142;47.990;7.846;2023-06-22T10:21:03;32.20;69.30
30336;DHT22;17142;47.990;7.846;2023-06-22T10:23:31;32.10;71.00
30336;DHT22;17142;47.990;7.846;2023-06-22T10:25:57;32.20;70.40
30336;DHT22;17142;47.990;7.846;2023-06-22T10:28:23;32.30;69.60
30336;DHT22;17142;47.990;7.846;2023-06-22T10:30:49;32.50;69.90
30336;DHT22;17142;47.990;7.846;2023-06-22T10:33:14;32.60;69.50
30336;DHT22;17142;47.990;7.846;2023-06-22T10:35:43;32.50;69.40
30336;DHT22;17142;47.990;7.846;2023-06-22T10:38:09;32.60;69.30
30336;DHT22;17142;47.990;7.846;2023-06-22T10:40:35;32.60;67.80
30336;DHT22;17142;47.990;7.846;2023-06-22T10:43:03;32.30;67.80
30336;DHT22;17142;47.990;7.846;2023-06-22T10:45:31;32.00;69.50
30336;DHT22;17142;47.990;7.846;2023-06-22T10:47:57;31.70;71.20
30336;DHT22;17142;47.990;7.846;2023-06-22T10:50:22;31.50;72.50
30336;DHT22;17142;47.990;7.846;2023-06-22T10:52:49;31.40;72.80
30336;DHT22;17142;47.990;7.846;2023-06-22T10:55:15;31.60;72.60
30336;DHT22;17142;47.990;7.846;2023-06-22T10:57:41;31.80;72.40
30336;DHT22;17142;47.990;7.846;2023-06-22T11:00:10;32.10;72.40
30336;DHT22;17142;47.990;7.846;2023-06-22T11:02:36;32.40;71.40
30336;DHT22;17142;47.990;7.846;2023-06-22T11:05:02;32.20;72.20
30336;DHT22;17142;47.990;7.846;2023-06-22T11:07:29;32.40;72.40
30336;DHT22;17142;47.990;7.846;2023-06-22T11:09:57;32.70;70.90
30336;DHT22;17142;47.990;7.846;2023-06-22T11:12:23;32.90;70.50
30336;DHT22;17142;47.990;7.846;2023-06-22T11:14:48;32.90;69.80
30336;DHT22;17142;47.990;7.846;2023-06-22T11:17:19;32.60;70.80
30336;DHT22;17142;47.990;7.846;2023-06-22T11:19:47;32.70;71.30
30336;DHT22;17142;47.990;7.846;2023-06-22T11:22:15;32.90;71.00
30336;DHT22;17142;47.990;7.846;2023-06-22T11:24:41;33.20;70.50
30336;DHT22;17142;47.990;7.846;2023-06-22T11:27:08;33.50;69.50
30336;DHT22;17142;47.990;7.846;2023-06-22T11:29:34;33.60;69.20
30336;DHT22;17142;47.990;7.846;2023-06-22T11:32:04;33.60;69.10
30336;DHT22;17142;47.990;7.846;2023-06-22T11:34:30;33.80;68.00
30336;DHT22;17142;47.990;7.846;2023-06-22T11:36:59;33.80;68.00
30336;DHT22;17142;47.990;7.846;2023-06-22T11:39:25;33.50;68.30
30336;DHT22;17142;47.990;7.846;2023-06-22T11:41:50;33.30;69.20
30336;DHT22;17142;47.990;7.846;2023-06-22T11:44:18;33.40;69.20
30336;DHT22;17142;47.990;7.846;2023-06-22T11:46:44;33.50;68.40
30336;DHT22;17142;47.990;7.846;2023-06-22T11:49:10;33.10;69.00
30336;DHT22;17142;47.990;7.846;2023-06-22T11:51:35;32.80;70.00
30336;DHT22;17142;47.990;7.846;2023-06-22T11:54:05;32.60;71.30
30336;DHT22;17142;47.990;7.846;2023-06-22T11:56:32;32.30;71.30
30336;DHT22;17142;47.990;7.846;2023-06-22T11:58:57;32.00;72.50
30336;DHT22;17142;47.990;7.846;2023-06-22T12:01:25;32.00;72.70
30336;DHT22;17142;47.990;7.846;2023-06-22T12:03:51;32.10;72.40
30336;DHT22;17142;47.990;7.846;2023-06-22T12:06:17;32.00;72.80
30336;DHT22;17142;47.990;7.846;2023-06-22T12:08:43;31.90;72.80
30336;DHT22;17142;47.990;7.846;2023-06-22T12:11:10;31.90;73.20
30336;DHT22;17142;47.990;7.846;2023-06-22T12:13:39;31.80;73.40
30336;DHT22;17142;47.990;7.846;2023-06-22T12:16:04;31.70;73.10
30336;DHT22;17142;47.990;7.846;2023-06-22T12:18:30;31.60;73.30
30336;DHT22;17142;47.990;7.846;2023-06-22T12:20:56;31.50;74.20
30336;DHT22;17142;47.990;7.846;2023-06-22T12:23:21;31.30;74.90
30336;DHT22;17142;47.990;7.846;2023-06-22T12:25:47;31.20;76.20
30336;DHT22;17142;47.990;7.846;2023-06-22T12:28:13;31.30;75.60
30336;DHT22;17142;47.990;7.846;2023-06-22T12:30:38;31.20;76.30
30336;DHT22;17142;47.990;7.846;2023-06-22T12:33:04;30.90;77.70
30336;DHT22;17142;47.990;7.846;2023-06-22T12:35:29;30.60;79.10
30336;DHT22;17142;47.990;7.846;2023-06-22T12:37:55;30.40;79.50
30336;DHT22;17142;47.990;7.846;2023-06-22T12:40:21;30.10;79.90
30336;DHT22;17142;47.990;7.846;2023-06-22T12:42:46;30.00;80.40
30336;DHT22;17142;47.990;7.846;2023-06-22T12:45:12;30.00;81.00
30336;DHT22;17142;47.990;7.846;2023-06-22T12:47:38;30.10;81.00
30336;DHT22;17142;47.990;7.846;2023-06-22T12:50:06;30.10;80.30
30336;DHT22;17142;47.990;7.846;2023-06-22T12:52:39;30.20;79.70
30336;DHT22;17142;47.990;7.846;2023-06-22T12:55:05;30.20;78.90
30336;DHT22;17142;47.990;7.846;2023-06-22T12:57:31;30.20;78.90
30336;DHT22;17142;47.990;7.846;2023-06-22T12:59:57;30.20;79.90
30336;DHT22;17142;47.990;7.846;2023-06-22T13:02:24;30.10;80.40
30336;DHT22;17142;47.990;7.846;2023-06-22T13:04:49;30.10;80.80
30336;DHT22;17142;47.990;7.846;2023-06-22T13:07:17;30.10;81.40
30336;DHT22;17142;47.990;7.846;2023-06-22T13:09:43;30.20;81.40
30336;DHT22;17142;47.990;7.846;2023-06-22T13:12:10;30.30;80.40
30336;DHT22;17142;47.990;7.846;2023-06-22T13:14:36;30.50;79.80
30336;DHT22;17142;47.990;7.846;2023-06-22T13:17:02;30.60;79.00
30336;DHT22;17142;47.990;7.846;2023-06-22T13:19:27;30.60;78.30
30336;DHT22;17142;47.990;7.846;2023-06-22T13:21:57;30.50;79.10
30336;DHT22;17142;47.990;7.846;2023-06-22T13:24:23;30.40;80.40
30336;DHT22;17142;47.990;7.846;2023-06-22T13:26:49;30.30;82.40
30336;DHT22;17142;47.990;7.846;2023-06-22T13:29:14;30.20;82.70
30336;DHT22;17142;47.990;7.846;2023-06-22T13:31:40;30.10;82.50
30336;DHT22;17142;47.990;7.846;2023-06-22T13:34:05;30.00;82.20
30336;DHT22;17142;47.990;7.846;2023-06-22T13:36:32;29.90;82.00
30336;DHT22;17142;47.990;7.846;2023-06-22T13:38:57;29.80;80.70
30336;DHT22;17142;47.990;7.846;2023-06-22T13:41:23;29.80;80.10
30336;DHT22;17142;47.990;7.846;2023-06-22T13:43:48;29.80;79.10
30336;DHT22;17142;47.990;7.846;2023-06-22T13:46:14;29.90;77.90
30336;DHT22;17142;47.990;7.846;2023-06-22T13:48:40;30.00;77.00
30336;DHT22;17142;47.990;7.846;2023-06-22T13:51:05;30.00;77.00
30336;DHT22;17142;47.990;7.846;2023-06-22T13:53:32;29.80;77.80
30336;DHT22;17142;47.990;7.846;2023-06-22T13:55:58;29.70;79.30
30336;DHT22;17142;47.990;7.846;2023-06-22T13:58:24;29.40;79.60
30336;DHT22;17142;47.990;7.846;2023-06-22T14:00:52;29.20;81.00
30336;DHT22;17142;47.990;7.846;2023-06-22T14:03:18;29.00;83.80
30336;DHT22;17142;47.990;7.846;2023-06-22T14:05:46;28.80;85.50
30336;DHT22;17142;47.990;7.846;2023-06-22T14:08:12;28.60;86.00
30336;DHT22;17142;47.990;7.846;2023-06-22T14:10:37;28.50;85.90
30336;DHT22;17142;47.990;7.846;2023-06-22T14:13:03;28.50;85.60
30336;DHT22;17142;47.990;7.846;2023-06-22T14:15:31;28.50;85.50
30336;DHT22;17142;47.990;7.846;2023-06-22T14:17:57;28.50;84.90
30336;DHT22;17142;47.990;7.846;2023-06-22T14:20:23;28.50;84.40
30336;DHT22;17142;47.990;7.846;2023-06-22T14:22:51;28.50;84.20
30336;DHT22;17142;47.990;7.846;2023-06-22T14:25:16;28.50;84.50
30336;DHT22;17142;47.990;7.846;2023-06-22T14:27:42;28.50;84.30
30336;DHT22;17142;47.990;7.846;2023-06-22T14:30:12;28.70;83.70
30336;DHT22;17142;47.990;7.846;2023-06-22T14:32:37;29.00;82.60
30336;DHT22;17142;47.990;7.846;2023-06-22T14:35:03;29.30;82.00
30336;DHT22;17142;47.990;7.846;2023-06-22T14:37:29;29.40;80.80
30336;DHT22;17142;47.990;7.846;2023-06-22T14:39:54;29.50;80.40
30336;DHT22;17142;47.990;7.846;2023-06-22T14:42:20;29.40;81.00
30336;DHT22;17142;47.990;7.846;2023-06-22T14:44:47;29.40;82.20
30336;DHT22;17142;47.990;7.846;2023-06-22T14:47:14;29.80;81.30
30336;DHT22;17142;47.990;7.846;2023-06-22T14:49:43;30.20;80.30
30336;DHT22;17142;47.990;7.846;2023-06-22T14:52:09;30.70;77.20
30336;DHT22;17142;47.990;7.846;2023-06-22T14:54:34;31.00;75.50
30336;DHT22;17142;47.990;7.846;2023-06-22T14:57:00;31.10;74.20
30336;DHT22;17142;47.990;7.846;2023-06-22T14:59:26;31.00;74.50
30336;DHT22;17142;47.990;7.846;2023-06-22T15:01:51;30.90;74.00
30336;DHT22;17142;47.990;7.846;2023-06-22T15:04:17;30.70;74.00
30336;DHT22;17142;47.990;7.846;2023-06-22T15:06:43;30.60;73.90
30336;DHT22;17142;47.990;7.846;2023-06-22T15:09:12;30.50;74.20
30336;DHT22;17142;47.990;7.846;2023-06-22T15:11:40;30.40;74.00
30336;DHT22;17142;47.990;7.846;2023-06-22T15:14:07;30.40;74.50
30336;DHT22;17142;47.990;7.846;2023-06-22T15:16:33;30.50;74.70
30336;DHT22;17142;47.990;7.846;2023-06-22T15:18:59;30.60;73.90
30336;DHT22;17142;47.990;7.846;2023-06-22T15:21:24;30.70;72.60
30336;DHT22;17142;47.990;7.846;2023-06-22T15:23:50;31.00;72.40
30336;DHT22;17142;47.990;7.846;2023-06-22T15:26:16;31.30;71.50
30336;DHT22;17142;47.990;7.846;2023-06-22T15:28:42;31.50;70.20
30336;DHT22;17142;47.990;7.846;2023-06-22T15:31:08;31.60;68.80
30336;DHT22;17142;47.990;7.846;2023-06-22T15:33:34;31.80;67.80
30336;DHT22;17142;47.990;7.846;2023-06-22T15:36:02;31.90;65.50
30336;DHT22;17142;47.990;7.846;2023-06-22T15:38:29;31.60;63.90
30336;DHT22;17142;47.990;7.846;2023-06-22T15:40:56;31.50;65.00
30336;DHT22;17142;47.990;7.846;2023-06-22T15:43:23;31.50;65.50
30336;DHT22;17142;47.990;7.846;2023-06-22T15:45:51;31.40;65.50
30336;DHT22;17142;47.990;7.846;2023-06-22T15:48:19;31.30;65.00
30336;DHT22;17142;47.990;7.846;2023-06-22T15:50:44;31.30;64.50
30336;DHT22;17142;47.990;7.846;2023-06-22T15:53:10;31.20;64.10
30336;DHT22;17142;47.990;7.846;2023-06-22T15:55:35;31.20;64.20
30336;DHT22;17142;47.990;7.846;2023-06-22T15:58:01;31.10;64.40
30336;DHT22;17142;47.990;7.846;2023-06-22T16:00:27;31.10;64.70
30336;DHT22;17142;47.990;7.846;2023-06-22T16:02:53;31.10;64.80
30336;DHT22;17142;47.990;7.846;2023-06-22T16:05:18;31.10;64.50
30336;DHT22;17142;47.990;7.846;2023-06-22T16:07:46;31.00;64.60
30336;DHT22;17142;47.990;7.846;2023-06-22T16:10:12;31.00;64.20
30336;DHT22;17142;47.990;7.846;2023-06-22T16:12:42;30.90;64.30
30336;DHT22;17142;47.990;7.846;2023-06-22T16:15:09;30.80;64.20
30336;DHT22;17142;47.990;7.846;2023-06-22T16:17:35;30.70;64.50
30336;DHT22;17142;47.990;7.846;2023-06-22T16:20:04;30.60;65.00
30336;DHT22;17142;47.990;7.846;2023-06-22T16:22:32;30.30;65.10
30336;DHT22;17142;47.990;7.846;2023-06-22T16:25:00;30.00;65.80
30336;DHT22;17142;47.990;7.846;2023-06-22T16:27:29;29.70;66.00
30336;DHT22;17142;47.990;7.846;2023-06-22T16:29:55;29.50;64.80
30336;DHT22;17142;47.990;7.846;2023-06-22T16:32:21;29.30;65.00
30336;DHT22;17142;47.990;7.846;2023-06-22T16:34:49;29.10;65.70
30336;DHT22;17142;47.990;7.846;2023-06-22T16:37:15;28.90;65.10
30336;DHT22;17142;47.990;7.846;2023-06-22T16:39:40;28.80;65.90
30336;DHT22;17142;47.990;7.846;2023-06-22T16:42:06;28.70;67.40
30336;DHT22;17142;47.990;7.846;2023-06-22T16:44:32;28.60;70.00
30336;DHT22;17142;47.990;7.846;2023-06-22T16:46:59;28.40;71.20
30336;DHT22;17142;47.990;7.846;2023-06-22T16:49:30;28.20;72.10
30336;DHT22;17142;47.990;7.846;2023-06-22T16:51:58;28.00;73.30
30336;DHT22;17142;47.990;7.846;2023-06-22T16:54:25;27.80;74.40
30336;DHT22;17142;47.990;7.846;2023-06-22T16:56:50;27.60;74.30
30336;DHT22;17142;47.990;7.846;2023-06-22T16:59:16;27.40;74.90
30336;DHT22;17142;47.990;7.846;2023-06-22T17:01:49;27.30;75.50
30336;DHT22;17142;47.990;7.846;2023-06-22T17:04:23;27.30;75.70
30336;DHT22;17142;47.990;7.846;2023-06-22T17:07:06;27.30;76.30
30336;DHT22;17142;47.990;7.846;2023-06-22T17:09:36;27.20;76.50
30336;DHT22;17142;47.990;7.846;2023-06-22T17:12:05;27.10;76.90
30336;DHT22;17142;47.990;7.846;2023-06-22T17:14:32;27.20;76.70
30336;DHT22;17142;47.990;7.846;2023-06-22T17:16:58;27.20;76.60
30336;DHT22;17142;47.990;7.846;2023-06-22T17:19:23;27.20;76.50
30336;DHT22;17142;47.990;7.846;2023-06-22T17:21:49;27.20;76.90
30336;DHT22;17142;47.990;7.846;2023-06-22T17:24:16;27.10;77.20
30336;DHT22;17142;47.990;7.846;2023-06-22T17:26:48;27.00;77.70
30336;DHT22;17142;47.990;7.846;2023-06-22T17:29:14;26.90;78.00
30336;DHT22;17142;47.990;7.846;2023-06-22T17:31:41;26.90;78.20
30336;DHT22;17142;47.990;7.846;2023-06-22T17:34:17;26.90;78.50
30336;DHT22;17142;47.990;7.846;2023-06-22T17:36:50;26.90;78.70
30336;DHT22;17142;47.990;7.846;2023-06-22T17:39:21;26.90;78.90
30336;DHT22;17142;47.990;7.846;2023-06-22T17:41:48;26.90;78.80
30336;DHT22;17142;47.990;7.846;2023-06-22T17:46:44;26.70;79.50
30336;DHT22;17142;47.990;7.846;2023-06-22T17:49:11;26.70;80.00
30336;DHT22;17142;47.990;7.846;2023-06-22T17:51:42;26.60;80.10
30336;DHT22;17142;47.990;7.846;2023-06-22T17:54:13;26.50;80.60
30336;DHT22;17142;47.990;7.846;2023-06-22T17:56:39;26.30;81.10
30336;DHT22;17142;47.990;7.846;2023-06-22T17:59:05;26.30;81.40
30336;DHT22;17142;47.990;7.846;2023-06-22T18:01:32;26.20;82.40
30336;DHT22;17142;47.990;7.846;2023-06-22T18:04:08;25.90;82.40
30336;DHT22;17142;47.990;7.846;2023-06-22T18:06:42;25.50;78.30
30336;DHT22;17142;47.990;7.846;2023-06-22T18:09:09;25.00;78.90
30336;DHT22;17142;47.990;7.846;2023-06-22T18:11:41;24.40;81.50
30336;DHT22;17142;47.990;7.846;2023-06-22T18:14:08;23.80;89.60
30336;DHT22;17142;47.990;7.846;2023-06-22T18:16:40;22.50;94.00
30336;DHT22;17142;47.990;7.846;2023-06-22T18:19:06;21.30;99.90
30336;DHT22;17142;47.990;7.846;2023-06-22T18:21:33;20.40;99.90
30336;DHT22;17142;47.990;7.846;2023-06-22T18:23:59;19.80;99.90
30336;DHT22;17142;47.990;7.846;2023-06-22T18:26:26;19.30;99.90
30336;DHT22;17142;47.990;7.846;2023-06-22T18:28:57;19.10;99.90
30336;DHT22;17142;47.990;7.846;2023-06-22T18:31:24;18.90;99.90
30336;DHT22;17142;47.990;7.846;2023-06-22T18:33:53;18.80;99.90
30336;DHT22;17142;47.990;7.846;2023-06-22T18:38:51;18.70;99.90
30336;DHT22;17142;47.990;7.846;2023-06-22T18:43:59;18.70;99.90
30336;DHT22;17142;47.990;7.846;2023-06-22T18:46:31;18.70;99.90
30336;DHT22;17142;47.990;7.846;2023-06-22T18:49:14;18.70;99.90
30336;DHT22;17142;47.990;7.846;2023-06-22T18:51:56;18.60;99.90
30336;DHT22;17142;47.990;7.846;2023-06-22T18:59:46;18.50;99.90
30336;DHT22;17142;47.990;7.846;2023-06-22T19:02:15;18.50;99.90
30336;DHT22;17142;47.990;7.846;2023-06-22T19:04:43;18.40;99.90
30336;DHT22;17142;47.990;7.846;2023-06-22T19:07:10;18.40;99.90
30336;DHT22;17142;47.990;7.846;2023-06-22T19:09:37;18.40;99.90
30336;DHT22;17142;47.990;7.846;2023-06-22T19:12:24;18.40;99.90
30336;DHT22;17142;47.990;7.846;2023-06-22T19:15:14;18.30;99.90
30336;DHT22;17142;47.990;7.846;2023-06-22T19:17:49;18.30;99.90
30336;DHT22;17142;47.990;7.846;2023-06-22T19:20:19;18.30;99.90
30336;DHT22;17142;47.990;7.846;2023-06-22T19:22:55;18.20;99.90
30336;DHT22;17142;47.990;7.846;2023-06-22T19:25:32;18.20;99.90
30336;DHT22;17142;47.990;7.846;2023-06-22T19:28:23;18.20;99.90
30336;DHT22;17142;47.990;7.846;2023-06-22T19:30:55;18.20;99.90
30336;DHT22;17142;47.990;7.846;2023-06-22T19:33:39;18.20;99.90
30336;DHT22;17142;47.990;7.846;2023-06-22T19:36:11;18.20;99.90
30336;DHT22;17142;47.990;7.846;2023-06-22T19:38:43;18.20;99.90
30336;DHT22;17142;47.990;7.846;2023-06-22T19:41:08;18.20;99.90
30336;DHT22;17142;47.990;7.846;2023-06-22T19:43:36;18.10;99.90
30336;DHT22;17142;47.990;7.846;2023-06-22T19:46:29;18.10;99.90
30336;DHT22;17142;47.990;7.846;2023-06-22T19:48:59;18.00;99.90
30336;DHT22;17142;47.990;7.846;2023-06-22T19:51:41;18.00;99.90
30336;DHT22;17142;47.990;7.846;2023-06-22T19:54:09;18.00;99.90
30336;DHT22;17142;47.990;7.846;2023-06-22T19:56:43;18.00;99.90
30336;DHT22;17142;47.990;7.846;2023-06-22T19:59:13;18.00;99.90
30336;DHT22;17142;47.990;7.846;2023-06-22T20:01:46;18.00;99.90
30336;DHT22;17142;47.990;7.846;2023-06-22T20:04:12;18.10;99.90
30336;DHT22;17142;47.990;7.846;2023-06-22T20:07:05;18.00;99.90
30336;DHT22;17142;47.990;7.846;2023-06-22T20:09:33;18.10;99.90
30336;DHT22;17142;47.990;7.846;2023-06-22T20:15:21;18.20;99.90
30336;DHT22;17142;47.990;7.846;2023-06-22T20:18:03;18.20;99.90
30336;DHT22;17142;47.990;7.846;2023-06-22T20:23:06;18.20;99.90
30336;DHT22;17142;47.990;7.846;2023-06-22T20:25:34;18.20;99.90
30336;DHT22;17142;47.990;7.846;2023-06-22T20:28:14;18.20;99.90
30336;DHT22;17142;47.990;7.846;2023-06-22T20:30:42;18.20;99.90
30336;DHT22;17142;47.990;7.846;2023-06-22T20:33:22;18.20;99.90
30336;DHT22;17142;47.990;7.846;2023-06-22T20:35:47;18.20;99.90
